Time;durP1;ratioP1;P1;durP2;ratioP2;P2;SDS_P1;SDS_P2;PMS_P1;PMS_P2;Temp;Humidity;BMP_temperature;BMP_pressure;BME280_temperature;BME280_humidity;BME280_pressure;Samples;Min_cycle;Max_cycle;Signal;HPM_P1;HPM_P2
2023/10/18 00:00:28;;;;;;;12.30;5.30;;;6.20;99.90;;;;;;5031502;28;20029;-54
2023/10/18 00:02:54;;;;;;;12.52;5.60;;;6.20;99.90;;;;;;5031659;28;20568;-53
2023/10/18 00:05:21;;;;;;;11.13;5.70;;;6.20;99.90;;;;;;5031312;28;20403;-53
2023/10/18 00:07:51;;;;;;;10.73;4.87;;;6.20;99.90;;;;;;5031499;28;20030;-54
2023/10/18 00:10:17;;;;;;;11.20;5.40;;;6.20;99.90;;;;;;5031021;28;20107;-54
2023/10/18 00:12:46;;;;;;;10.63;5.77;;;6.20;99.90;;;;;;5031394;28;20033;-49
2023/10/18 00:15:12;;;;;;;10.15;5.28;;;6.10;99.90;;;;;;5031395;28;20362;-53
2023/10/18 00:17:38;;;;;;;13.00;6.17;;;6.10;99.90;;;;;;5031428;28;20026;-55
2023/10/18 00:20:13;;;;;;;15.07;7.10;;;6.10;99.90;;;;;;5030996;28;20030;-51
2023/10/18 00:22:39;;;;;;;12.03;5.77;;;6.00;99.90;;;;;;5031255;28;20029;-54
2023/10/18 00:25:06;;;;;;;16.20;7.03;;;6.00;99.90;;;;;;5031009;28;20034;-55
2023/10/18 00:27:32;;;;;;;17.77;7.90;;;6.00;99.90;;;;;;5034324;28;20037;-52
2023/10/18 00:29:58;;;;;;;15.77;7.57;;;6.00;99.90;;;;;;5017089;28;20035;-53
2023/10/18 00:32:26;;;;;;;15.23;7.90;;;6.00;99.90;;;;;;5035081;28;20413;-53
2023/10/18 00:34:54;;;;;;;16.30;7.30;;;5.90;99.90;;;;;;5017003;28;20390;-52
2023/10/18 00:37:21;;;;;;;17.23;7.67;;;5.90;99.90;;;;;;5000863;28;20475;-54
2023/10/18 00:39:47;;;;;;;13.83;7.27;;;5.90;99.90;;;;;;5016938;28;20021;-54
2023/10/18 00:42:28;;;;;;;17.07;8.23;;;5.90;99.90;;;;;;5034996;28;20036;-54
2023/10/18 00:45:08;;;;;;;14.37;6.57;;;5.90;99.90;;;;;;5034769;28;20087;-54
2023/10/18 00:47:35;;;;;;;14.97;7.70;;;5.80;99.90;;;;;;5017104;28;20064;-55
2023/10/18 00:50:02;;;;;;;16.90;7.03;;;5.80;99.90;;;;;;5016862;28;20064;-55
2023/10/18 00:52:28;;;;;;;14.47;7.30;;;5.80;99.90;;;;;;5016929;28;20030;-54
2023/10/18 00:54:54;;;;;;;16.33;7.17;;;5.80;99.90;;;;;;5016533;28;20474;-54
2023/10/18 00:57:22;;;;;;;13.33;6.80;;;5.80;99.90;;;;;;5034790;28;20034;-52
2023/10/18 00:59:51;;;;;;;13.53;6.40;;;5.80;99.90;;;;;;5016756;28;20078;-55
2023/10/18 01:02:19;;;;;;;13.73;6.57;;;5.80;99.90;;;;;;5016748;28;20440;-53
2023/10/18 01:04:52;;;;;;;12.70;6.40;;;5.80;99.90;;;;;;5034275;28;20033;-54
2023/10/18 01:07:20;;;;;;;10.77;5.40;;;5.80;99.90;;;;;;5016604;28;20026;-54
2023/10/18 01:09:48;;;;;;;11.43;6.10;;;5.80;99.90;;;;;;5034104;28;20497;-53
2023/10/18 01:12:15;;;;;;;13.63;6.47;;;5.80;99.90;;;;;;5016405;28;20507;-52
2023/10/18 01:14:42;;;;;;;14.33;7.07;;;5.70;99.90;;;;;;5034246;28;20027;-53
2023/10/18 01:17:08;;;;;;;13.33;6.43;;;5.70;99.90;;;;;;5034458;28;20493;-50
2023/10/18 01:19:35;;;;;;;15.30;7.77;;;5.70;99.90;;;;;;5034126;28;20117;-54
2023/10/18 01:22:03;;;;;;;15.57;9.40;;;5.70;99.90;;;;;;5016461;28;20047;-53
2023/10/18 01:24:36;;;;;;;17.30;8.43;;;5.70;99.90;;;;;;5015998;28;20032;-54
2023/10/18 01:27:05;;;;;;;20.73;10.13;;;5.70;99.90;;;;;;5016404;28;20032;-54
2023/10/18 01:29:31;;;;;;;;;;;5.70;99.90;;;;;;5034320;28;20029;-53
2023/10/18 01:31:58;;;;;;;26.73;11.30;;;5.60;99.90;;;;;;5016184;28;20274;-53
2023/10/18 01:34:25;;;;;;;22.53;11.57;;;5.60;99.90;;;;;;5016003;28;20029;-54
2023/10/18 01:36:57;;;;;;;24.73;12.23;;;5.60;99.90;;;;;;5016308;28;20029;-53
2023/10/18 01:39:29;;;;;;;28.17;14.53;;;5.60;99.90;;;;;;5032890;28;20052;-55
2023/10/18 01:41:55;;;;;;;28.83;14.23;;;5.50;99.90;;;;;;5034025;28;20030;-54
2023/10/18 01:44:31;;;;;;;28.73;14.77;;;5.50;99.90;;;;;;5015771;28;20035;-51
2023/10/18 01:47:04;;;;;;;29.17;15.07;;;5.50;99.90;;;;;;5033897;28;20029;-53
2023/10/18 01:49:31;;;;;;;34.30;17.00;;;5.50;99.90;;;;;;5033470;28;20033;-54
2023/10/18 01:52:04;;;;;;;32.10;16.00;;;5.50;99.90;;;;;;5015910;28;20045;-54
2023/10/18 01:54:29;;;;;;;35.77;16.70;;;5.50;99.90;;;;;;5015527;28;20037;-51
2023/10/18 01:56:57;;;;;;;35.47;16.07;;;5.40;99.90;;;;;;5015891;28;20120;-54
2023/10/18 01:59:27;;;;;;;30.60;15.45;;;5.50;99.90;;;;;;5015475;28;20040;-51
2023/10/18 02:01:55;;;;;;;28.73;14.95;;;5.40;99.90;;;;;;5015721;28;20120;-54
2023/10/18 02:04:25;;;;;;;26.80;13.73;;;5.40;99.90;;;;;;5015463;28;20025;-55
2023/10/18 02:06:59;;;;;;;33.13;14.30;;;5.40;99.90;;;;;;5033705;28;20482;-53
2023/10/18 02:09:48;;;;;;;27.77;13.17;;;5.40;99.90;;;;;;5015234;28;20029;-54
2023/10/18 02:12:18;;;;;;;27.87;11.57;;;5.40;99.90;;;;;;5015743;28;20401;-52
2023/10/18 02:14:56;;;;;;;21.83;10.60;;;5.40;99.90;;;;;;5033398;28;20039;-54
2023/10/18 02:17:22;;;;;;;21.80;11.37;;;5.40;99.90;;;;;;4999323;28;20076;-54
2023/10/18 02:19:48;;;;;;;23.50;9.87;;;5.40;99.90;;;;;;5015424;28;20034;-55
2023/10/18 02:22:16;;;;;;;18.03;9.43;;;5.40;99.90;;;;;;5015495;28;20036;-54
2023/10/18 02:24:45;;;;;;;21.00;9.73;;;5.40;99.90;;;;;;5015239;28;20029;-50
2023/10/18 02:27:15;;;;;;;18.55;8.98;;;5.40;99.90;;;;;;5015151;28;20079;-55
2023/10/18 02:29:42;;;;;;;20.83;9.40;;;5.40;99.90;;;;;;5014581;28;20041;-54
2023/10/18 02:32:23;;;;;;;17.53;8.27;;;5.40;99.90;;;;;;5014782;28;20344;-55
2023/10/18 02:34:52;;;;;;;16.43;8.53;;;5.30;99.90;;;;;;5032156;28;20029;-55
2023/10/18 02:37:19;;;;;;;18.83;7.55;;;5.30;99.90;;;;;;5014516;28;20213;-55
2023/10/18 02:39:45;;;;;;;15.50;7.33;;;5.30;99.90;;;;;;5014123;28;20044;-54
2023/10/18 02:42:13;;;;;;;16.77;7.33;;;5.30;99.90;;;;;;5032181;28;20076;-50
2023/10/18 02:44:42;;;;;;;13.83;6.60;;;5.30;99.90;;;;;;5014088;28;20037;-55
2023/10/18 02:47:29;;;;;;;13.88;6.85;;;5.30;99.90;;;;;;5032177;28;20040;-50
2023/10/18 02:49:55;;;;;;;17.03;6.97;;;5.30;99.90;;;;;;5012793;28;20042;-52
2023/10/18 02:52:20;;;;;;;11.73;6.03;;;5.20;99.90;;;;;;5031989;28;20112;-52
2023/10/18 02:54:48;;;;;;;13.27;6.47;;;5.20;99.90;;;;;;5013970;28;20032;-55
2023/10/18 02:57:14;;;;;;;14.27;7.00;;;5.20;99.90;;;;;;5014003;28;20089;-54
2023/10/18 02:59:41;;;;;;;19.93;9.13;;;5.20;99.90;;;;;;5013787;28;20157;-55
2023/10/18 03:02:13;;;;;;;18.07;8.97;;;5.20;99.90;;;;;;5031834;28;20029;-55
2023/10/18 03:04:42;;;;;;;17.40;9.70;;;5.20;99.90;;;;;;5031533;28;20029;-51
2023/10/18 03:07:10;;;;;;;22.33;10.13;;;5.10;99.90;;;;;;5013896;28;20029;-53
2023/10/18 03:09:41;;;;;;;24.43;9.97;;;5.10;99.90;;;;;;5031228;28;20120;-51
2023/10/18 03:12:13;;;;;;;22.73;10.38;;;5.20;99.90;;;;;;5013841;28;20036;-53
2023/10/18 03:14:39;;;;;;;18.80;9.23;;;5.20;99.90;;;;;;5013599;28;20030;-52
2023/10/18 03:17:15;;;;;;;22.67;9.90;;;5.20;99.90;;;;;;5013929;28;20390;-53
2023/10/18 03:19:44;;;;;;;18.73;9.67;;;5.20;99.90;;;;;;4997237;28;20124;-52
2023/10/18 03:22:11;;;;;;;19.10;9.17;;;5.20;99.90;;;;;;5031413;28;20033;-52
2023/10/18 03:24:37;;;;;;;22.00;9.40;;;5.10;99.90;;;;;;5013359;28;20399;-53
2023/10/18 03:27:08;;;;;;;22.83;10.00;;;5.10;99.90;;;;;;5031433;28;20029;-51
2023/10/18 03:29:37;;;;;;;20.43;9.97;;;5.10;99.90;;;;;;5030993;28;20471;-50
2023/10/18 03:32:08;;;;;;;19.15;10.45;;;5.10;99.90;;;;;;5031373;28;20112;-52
2023/10/18 03:34:37;;;;;;;23.97;11.67;;;5.10;99.90;;;;;;5013349;28;20029;-50
2023/10/18 03:37:07;;;;;;;28.70;13.43;;;5.10;99.90;;;;;;5013555;28;20057;-54
2023/10/18 03:39:33;;;;;;;31.80;13.80;;;5.10;99.90;;;;;;5012986;28;20034;-53
2023/10/18 03:42:01;;;;;;;25.27;12.97;;;5.00;99.90;;;;;;5013293;28;20076;-54
2023/10/18 03:44:27;;;;;;;27.27;13.97;;;5.10;99.90;;;;;;5013105;28;20028;-54
2023/10/18 03:47:11;;;;;;;27.30;12.43;;;5.00;99.90;;;;;;5013461;28;20029;-50
2023/10/18 03:49:37;;;;;;;26.40;13.67;;;5.00;99.90;;;;;;5031064;28;20030;-54
2023/10/18 03:54:47;;;;;;;24.13;11.83;;;5.00;99.90;;;;;;5024920;28;20025;-51
2023/10/18 03:57:16;;;;;;;27.97;14.23;;;5.00;99.90;;;;;;5017802;28;20025;-50
2023/10/18 03:59:45;;;;;;;24.00;12.45;;;5.00;99.90;;;;;;5016726;28;20022;-53
2023/10/18 04:04:45;;;;;;;23.33;12.00;;;5.00;99.90;;;;;;5036687;28;19924;-51
2023/10/18 04:07:16;;;;;;;26.23;12.20;;;5.00;99.90;;;;;;5048696;28;20059;-52
2023/10/18 04:09:50;;;;;;;25.57;12.57;;;4.90;99.90;;;;;;5046953;28;20123;-53
2023/10/18 04:12:19;;;;;;;23.37;12.07;;;4.90;99.90;;;;;;5040542;28;20037;-51
2023/10/18 04:15:01;;;;;;;30.55;13.27;;;4.90;99.90;;;;;;5034948;28;20036;-51
2023/10/18 04:17:37;;;;;;;28.67;13.83;;;4.90;99.90;;;;;;5028105;28;20458;-53
2023/10/18 04:20:11;;;;;;;28.40;13.07;;;4.90;99.90;;;;;;5040410;28;20401;-54
2023/10/18 04:22:38;;;;;;;29.10;14.00;;;4.90;99.90;;;;;;5043810;28;20037;-53
2023/10/18 04:25:14;;;;;;;25.27;13.07;;;4.90;99.90;;;;;;5031063;28;20431;-52
2023/10/18 04:27:40;;;;;;;32.93;14.20;;;4.90;99.90;;;;;;5036445;28;20469;-50
2023/10/18 04:30:06;;;;;;;22.10;12.67;;;4.90;99.90;;;;;;5039588;28;20037;-50
2023/10/18 04:32:32;;;;;;;22.80;12.23;;;4.90;99.90;;;;;;5019971;28;20061;-50
2023/10/18 04:34:59;;;;;;;28.20;12.80;;;4.90;99.90;;;;;;5037553;28;20060;-54
2023/10/18 04:37:26;;;;;;;23.50;12.73;;;4.90;99.90;;;;;;5037716;28;20529;-49
2023/10/18 04:39:53;;;;;;;24.70;12.27;;;4.90;99.90;;;;;;5037614;28;20056;-51
2023/10/18 04:42:18;;;;;;;25.83;11.23;;;4.90;99.90;;;;;;5039498;28;20029;-52
2023/10/18 04:44:49;;;;;;;24.77;12.10;;;4.90;99.90;;;;;;5026429;28;20035;-54
2023/10/18 04:47:14;;;;;;;27.13;11.33;;;4.90;99.90;;;;;;5027685;28;20178;-50
2023/10/18 04:49:50;;;;;;;25.27;12.27;;;4.90;99.90;;;;;;5027222;28;20026;-54
2023/10/18 04:52:28;;;;;;;23.37;11.17;;;4.90;99.90;;;;;;5028390;28;20021;-54
2023/10/18 04:55:00;;;;;;;23.33;11.27;;;4.90;99.90;;;;;;5024413;28;20079;-54
2023/10/18 04:57:26;;;;;;;21.27;10.60;;;4.90;99.90;;;;;;5033086;28;20013;-50
2023/10/18 04:59:59;;;;;;;18.97;10.33;;;4.90;99.90;;;;;;5039850;28;20359;-54
2023/10/18 05:02:29;;;;;;;22.80;10.80;;;4.90;99.90;;;;;;5029757;28;20435;-54
2023/10/18 05:04:57;;;;;;;20.73;10.53;;;4.90;99.90;;;;;;5028932;28;20021;-53
2023/10/18 05:07:40;;;;;;;25.63;11.03;;;4.90;99.90;;;;;;5040019;28;20083;-52
2023/10/18 05:10:16;;;;;;;22.50;10.40;;;4.90;99.90;;;;;;5039330;28;20029;-50
2023/10/18 05:13:01;;;;;;;20.10;10.17;;;4.90;99.90;;;;;;5042654;28;20056;-53
2023/10/18 05:15:33;;;;;;;22.27;10.50;;;4.90;99.90;;;;;;5029587;28;20037;-51
2023/10/18 05:18:06;;;;;;;20.17;10.57;;;5.00;99.90;;;;;;5040351;28;20033;-55
2023/10/18 05:23:22;;;;;;;25.03;10.20;;;4.90;99.90;;;;;;5042208;28;20028;-53
2023/10/18 05:25:53;;;;;;;20.87;10.60;;;5.00;99.90;;;;;;5032519;28;20033;-54
2023/10/18 05:28:25;;;;;;;20.97;10.73;;;5.00;99.90;;;;;;5044014;28;20029;-54
2023/10/18 05:31:25;;;;;;;22.27;9.67;;;5.00;99.90;;;;;;5036875;28;20041;-55
2023/10/18 05:33:49;;;;;;;19.80;8.87;;;5.00;99.90;;;;;;5040004;28;20067;-54
2023/10/18 05:43:58;;;;;;;16.47;7.10;;;5.10;99.90;;;;;;5050807;28;20055;-50
2023/10/18 05:46:27;;;;;;;18.53;7.43;;;5.10;99.90;;;;;;5016893;28;20464;-54
2023/10/18 05:48:57;;;;;;;12.65;6.30;;;5.00;99.90;;;;;;5043745;28;20033;-53
2023/10/18 05:51:26;;;;;;;12.07;6.47;;;5.10;99.90;;;;;;5050996;28;20473;-52
2023/10/18 05:53:59;;;;;;;12.60;6.07;;;5.00;99.90;;;;;;5017907;28;20029;-48
2023/10/18 05:56:29;;;;;;;16.17;5.93;;;5.00;99.90;;;;;;5039712;28;20017;-51
2023/10/18 06:01:47;;;;;;;8.37;4.27;;;5.10;99.90;;;;;;5051365;28;20029;-54
2023/10/18 06:04:13;;;;;;;9.80;4.70;;;5.10;99.90;;;;;;5051014;28;20041;-53
2023/10/18 06:06:40;;;;;;;10.93;4.93;;;5.10;99.90;;;;;;5042826;28;20032;-51
2023/10/18 06:09:10;;;;;;;9.10;4.17;;;5.10;99.90;;;;;;5049395;28;20053;-53
2023/10/18 06:11:39;;;;;;;9.53;4.43;;;5.10;99.90;;;;;;5039446;28;20033;-52
2023/10/18 06:14:16;;;;;;;10.30;3.95;;;5.10;99.90;;;;;;5047540;28;20039;-54
2023/10/18 06:16:42;;;;;;;8.20;4.10;;;5.20;99.90;;;;;;5045956;28;20470;-53
2023/10/18 06:19:13;;;;;;;8.30;4.00;;;5.20;99.90;;;;;;5049013;28;20028;-55
2023/10/18 06:21:49;;;;;;;8.17;3.67;;;5.20;99.90;;;;;;5051216;28;20049;-55
2023/10/18 06:24:16;;;;;;;8.33;3.90;;;5.20;99.90;;;;;;5042446;28;20040;-52
2023/10/18 06:26:44;;;;;;;12.40;4.67;;;5.30;99.90;;;;;;5049748;28;20079;-52
2023/10/18 06:29:11;;;;;;;8.73;3.93;;;5.20;99.90;;;;;;5042008;28;20370;-51
2023/10/18 06:31:42;;;;;;;7.20;3.77;;;5.30;99.90;;;;;;5049539;28;20078;-55
2023/10/18 06:34:17;;;;;;;8.33;3.67;;;5.30;99.90;;;;;;5043019;28;20037;-52
2023/10/18 06:36:43;;;;;;;9.43;3.70;;;5.30;99.90;;;;;;5044733;28;20136;-50
2023/10/18 06:39:24;;;;;;;7.80;3.70;;;5.30;99.90;;;;;;5040052;28;20044;-54
2023/10/18 06:41:54;;;;;;;6.77;3.27;;;5.40;99.90;;;;;;5039755;28;20025;-52
2023/10/18 06:44:20;;;;;;;7.60;3.80;;;5.40;99.90;;;;;;5038658;28;20032;-55
2023/10/18 06:46:49;;;;;;;11.07;4.47;;;5.40;99.90;;;;;;5027301;28;20033;-53
2023/10/18 06:49:14;;;;;;;7.28;3.38;;;5.40;99.90;;;;;;5046713;28;20052;-51
2023/10/18 06:51:40;;;;;;;7.67;3.47;;;5.40;99.90;;;;;;5036037;28;20028;-54
2023/10/18 06:54:13;;;;;;;11.03;3.73;;;5.50;99.90;;;;;;5047868;28;20028;-52
2023/10/18 06:56:39;;;;;;;6.67;3.60;;;5.50;99.90;;;;;;5044060;28;20102;-50
2023/10/18 06:59:09;;;;;;;8.23;3.67;;;5.60;99.90;;;;;;5048067;28;20037;-52
2023/10/18 07:02:11;;;;;;;7.60;3.60;;;5.60;99.90;;;;;;5040958;28;20381;-55
2023/10/18 07:04:37;;;;;;;7.17;3.13;;;5.60;99.90;;;;;;5044764;28;20048;-55
2023/10/18 07:07:11;;;;;;;10.50;4.20;;;5.70;99.90;;;;;;5041052;28;20057;-50
2023/10/18 07:09:37;;;;;;;8.67;3.33;;;5.70;99.90;;;;;;5043490;28;20485;-53
2023/10/18 07:12:10;;;;;;;10.43;3.57;;;5.70;99.90;;;;;;5042466;28;20037;-50
2023/10/18 07:14:37;;;;;;;6.90;3.90;;;5.80;99.90;;;;;;5048413;28;20053;-54
2023/10/18 07:17:04;;;;;;;7.03;3.63;;;5.80;99.90;;;;;;5049469;28;20485;-54
2023/10/18 07:19:33;;;;;;;10.40;3.73;;;5.80;99.90;;;;;;5037787;28;20033;-51
2023/10/18 07:22:00;;;;;;;8.37;4.37;;;5.90;99.90;;;;;;5038929;28;20044;-51
2023/10/18 07:24:36;;;;;;;9.90;3.80;;;5.90;99.90;;;;;;5047287;28;20032;-51
2023/10/18 07:27:09;;;;;;;11.27;4.43;;;6.00;99.90;;;;;;5042089;28;20103;-51
2023/10/18 07:29:46;;;;;;;10.63;4.23;;;6.00;99.90;;;;;;5042857;28;20069;-52
2023/10/18 07:32:14;;;;;;;9.33;4.70;;;6.00;99.90;;;;;;5037154;28;20040;-54
2023/10/18 07:34:42;;;;;;;10.23;4.22;;;6.10;99.90;;;;;;5048542;28;20075;-52
2023/10/18 07:37:17;;;;;;;7.40;3.70;;;6.10;99.90;;;;;;5047322;28;20086;-54
2023/10/18 07:39:48;;;;;;;10.47;4.27;;;6.20;99.90;;;;;;5046359;28;20033;-53
2023/10/18 07:42:18;;;;;;;6.27;3.50;;;6.30;99.90;;;;;;5048092;28;20112;-51
2023/10/18 07:44:46;;;;;;;9.93;3.93;;;6.40;99.90;;;;;;5047904;28;20024;-50
2023/10/18 07:47:19;;;;;;;8.47;3.70;;;6.40;99.90;;;;;;5037010;28;20505;-51
2023/10/18 07:49:45;;;;;;;8.10;3.87;;;6.50;99.90;;;;;;5046390;28;20032;-54
2023/10/18 07:52:11;;;;;;;9.73;3.97;;;6.60;99.90;;;;;;5024099;28;20044;-53
2023/10/18 07:54:37;;;;;;;7.53;3.77;;;6.60;99.90;;;;;;5043012;28;20021;-53
2023/10/18 07:57:03;;;;;;;8.20;3.90;;;6.70;99.90;;;;;;5049442;28;20041;-54
2023/10/18 07:59:30;;;;;;;8.70;3.80;;;6.80;99.90;;;;;;5046984;28;20029;-55
2023/10/18 08:04:42;;;;;;;7.57;3.70;;;7.00;99.90;;;;;;5034124;28;20029;-50
2023/10/18 08:07:15;;;;;;;7.63;3.80;;;7.00;99.90;;;;;;5048906;28;20028;-54
2023/10/18 08:09:41;;;;;;;8.47;3.87;;;7.10;99.90;;;;;;5048562;28;20048;-54
2023/10/18 08:12:08;;;;;;;8.83;3.40;;;7.10;99.90;;;;;;5045868;28;20032;-54
2023/10/18 08:14:35;;;;;;;7.73;3.37;;;7.20;99.90;;;;;;5040442;28;20036;-52
2023/10/18 08:17:09;;;;;;;8.97;3.67;;;7.30;99.90;;;;;;5034025;28;20855;-54
2023/10/18 08:19:43;;;;;;;7.67;3.10;;;7.40;99.90;;;;;;5048663;28;20029;-52
2023/10/18 08:24:41;;;;;;;7.80;3.50;;;7.60;99.90;;;;;;5046856;28;20040;-54
2023/10/18 08:27:10;;;;;;;6.17;3.47;;;7.80;99.90;;;;;;5048988;28;20087;-55
2023/10/18 08:29:38;;;;;;;7.22;3.90;;;8.00;99.90;;;;;;5046839;28;20055;-55
2023/10/18 08:32:18;;;;;;;8.48;3.45;;;8.10;99.90;;;;;;5048976;28;20033;-52
2023/10/18 08:34:45;;;;;;;6.47;3.57;;;8.30;99.90;;;;;;5038763;28;20029;-51
2023/10/18 08:37:13;;;;;;;8.10;3.53;;;8.40;99.90;;;;;;5047027;28;20029;-54
2023/10/18 08:39:55;;;;;;;9.50;3.63;;;8.60;99.90;;;;;;5038881;28;20040;-55
2023/10/18 08:42:32;;;;;;;8.73;3.27;;;8.80;99.90;;;;;;5045533;28;20037;-55
2023/10/18 08:45:04;;;;;;;6.77;3.30;;;9.00;99.90;;;;;;5010932;28;20238;-54
2023/10/18 08:47:35;;;;;;;7.73;3.90;;;9.20;99.90;;;;;;5039666;28;20049;-55
2023/10/18 08:50:01;;;;;;;6.67;3.40;;;9.40;99.90;;;;;;5042300;28;20040;-53
2023/10/18 08:52:34;;;;;;;5.07;2.60;;;9.60;99.90;;;;;;5041310;28;20092;-51
2023/10/18 08:55:19;;;;;;;8.50;3.60;;;9.70;99.90;;;;;;5051828;28;20033;-50
2023/10/18 08:57:46;;;;;;;7.30;3.40;;;9.80;99.90;;;;;;5036411;28;20075;-48
2023/10/18 09:02:53;;;;;;;6.53;2.88;;;9.80;99.90;;;;;;5050189;28;20040;-53
2023/10/18 09:05:23;;;;;;;6.77;3.20;;;10.00;99.90;;;;;;5050162;28;20033;-51
2023/10/18 09:07:54;;;;;;;4.63;2.80;;;10.10;99.90;;;;;;5049636;28;20032;-51
2023/10/18 09:16:04;;;;;;;8.93;3.27;;;10.60;99.90;;;;;;5044041;28;20481;-55
2023/10/18 09:18:30;;;;;;;6.17;3.13;;;10.70;99.90;;;;;;5039266;28;20037;-54
2023/10/18 09:21:17;;;;;;;6.53;2.90;;;10.90;99.90;;;;;;5047693;28;20355;-53
2023/10/18 09:23:44;;;;;;;4.37;2.47;;;11.10;99.90;;;;;;5043520;28;20058;-55
2023/10/18 09:26:18;;;;;;;10.10;3.20;;;11.20;99.90;;;;;;5048403;28;20044;-54
2023/10/18 09:28:44;;;;;;;6.27;2.77;;;11.40;99.90;;;;;;5038153;28;20039;-50
2023/10/18 09:31:20;;;;;;;7.10;2.78;;;11.60;99.90;;;;;;5048765;28;20040;-54
2023/10/18 09:33:56;;;;;;;6.65;2.67;;;12.10;99.90;;;;;;5049028;28;20017;-52
2023/10/18 09:36:25;;;;;;;6.22;2.70;;;12.60;99.90;;;;;;5034120;28;20025;-54
2023/10/18 09:38:55;;;;;;;4.88;2.42;;;12.90;99.90;;;;;;5047551;28;20358;-52
2023/10/18 09:41:22;;;;;;;3.97;2.55;;;13.10;99.90;;;;;;5050976;28;20033;-52
2023/10/18 09:43:48;;;;;;;4.47;2.15;;;13.00;99.90;;;;;;5043187;28;20025;-50
2023/10/18 09:46:16;;;;;;;6.97;2.72;;;12.90;99.90;;;;;;5048210;28;20033;-49
2023/10/18 09:48:46;;;;;;;5.72;2.80;;;12.80;99.90;;;;;;5045180;28;20052;-51
2023/10/18 09:51:16;;;;;;;9.52;3.20;;;12.80;99.90;;;;;;5051040;28;20048;-51
2023/10/18 09:53:49;;;;;;;4.65;2.65;;;12.90;99.90;;;;;;5046065;28;20040;-51
2023/10/18 09:56:24;;;;;;;4.72;2.40;;;13.00;99.90;;;;;;5039892;28;20025;-51
2023/10/18 09:58:51;;;;;;;6.40;2.50;;;13.40;99.90;;;;;;5045111;28;20362;-52
2023/10/18 10:02:07;;;;;;;6.38;2.45;;;13.50;99.90;;;;;;5039130;28;20041;-54
2023/10/18 10:04:09;;;;;;;7.30;2.88;;;13.70;99.90;;;;;;5024422;28;20053;-51
2023/10/18 10:06:35;;;;;;;4.72;2.05;;;13.80;99.90;;;;;;5031368;28;20044;-51
2023/10/18 10:11:43;;;;;;;6.68;2.60;;;13.90;99.90;;;;;;5036006;28;20021;-54
2023/10/18 10:14:16;;;;;;;4.25;2.30;;;13.80;99.90;;;;;;5031168;28;20109;-53
2023/10/18 10:16:54;;;;;;;8.05;3.13;;;13.90;99.90;;;;;;5028398;28;20021;-53
2023/10/18 10:19:25;;;;;;;4.68;2.30;;;14.10;99.90;;;;;;5036993;28;20461;-54
2023/10/18 10:21:52;;;;;;;5.50;2.53;;;14.10;99.90;;;;;;5028724;28;20029;-53
2023/10/18 10:24:42;;;;;;;5.07;2.33;;;14.20;99.90;;;;;;5030877;28;20166;-53
2023/10/18 10:30:03;;;;;;;3.53;2.03;;;14.30;99.90;;;;;;5027741;28;20029;-55
2023/10/18 10:32:30;;;;;;;4.65;2.00;;;14.60;99.90;;;;;;5031504;28;20018;-55
2023/10/18 10:35:15;;;;;;;5.70;2.45;;;14.80;99.90;;;;;;5029790;28;20052;-55
2023/10/18 10:37:52;;;;;;;5.38;2.72;;;14.80;99.90;;;;;;5028020;28;20032;-55
2023/10/18 10:43:18;;;;;;;7.55;3.42;;;15.00;99.90;;;;;;5027259;28;20045;-50
2023/10/18 10:48:16;;;;;;;5.57;2.30;;;15.10;99.90;;;;;;5048291;28;20037;-53
2023/10/18 10:50:53;;;;;;;2.97;1.88;;;15.30;99.90;;;;;;5035277;28;20128;-53
2023/10/18 10:53:30;;;;;;;3.90;1.95;;;15.40;99.90;;;;;;5048032;28;20024;-54
2023/10/18 10:55:56;;;;;;;3.53;1.70;;;15.40;99.90;;;;;;5043160;28;20028;-54
2023/10/18 10:58:29;;;;;;;5.32;2.05;;;15.70;99.90;;;;;;5049289;28;20529;-55
2023/10/18 11:01:02;;;;;;;4.10;1.77;;;16.10;99.90;;;;;;5037185;28;20040;-54
2023/10/18 11:03:29;;;;;;;5.13;2.05;;;16.30;99.90;;;;;;5048741;28;20033;-52
2023/10/18 11:05:57;;;;;;;5.75;2.40;;;16.30;99.90;;;;;;5040721;28;20583;-53
2023/10/18 11:08:24;;;;;;;4.57;2.33;;;16.30;99.90;;;;;;5017271;28;20144;-52
2023/10/18 11:10:50;;;;;;;3.70;1.75;;;16.40;99.90;;;;;;5022799;28;20032;-50
2023/10/18 11:13:22;;;;;;;3.70;1.80;;;16.30;99.90;;;;;;5043566;28;20078;-52
2023/10/18 11:15:50;;;;;;;5.90;1.95;;;16.30;99.90;;;;;;5041130;28;20105;-52
2023/10/18 11:18:22;;;;;;;3.13;1.42;;;16.40;98.50;;;;;;5043493;28;20118;-53
2023/10/18 11:20:58;;;;;;;3.42;1.40;;;16.40;97.90;;;;;;5030918;28;20067;-54
2023/10/18 11:23:26;;;;;;;3.92;1.40;;;16.30;98.70;;;;;;5028395;28;20072;-51
2023/10/18 11:25:56;;;;;;;3.97;1.40;;;16.20;98.90;;;;;;5026095;28;20037;-50
2023/10/18 11:28:28;;;;;;;3.70;1.27;;;16.10;98.50;;;;;;5013430;28;20622;-52
2023/10/18 11:30:56;;;;;;;3.65;1.42;;;16.10;98.20;;;;;;5009144;28;20037;-50
2023/10/18 11:33:46;;;;;;;3.50;1.38;;;16.10;98.10;;;;;;5030659;28;20331;-52
2023/10/18 11:36:13;;;;;;;2.88;1.45;;;16.10;98.30;;;;;;5021697;28;20044;-53
2023/10/18 11:38:39;;;;;;;2.78;1.33;;;16.20;97.30;;;;;;5045152;28;20127;-53
2023/10/18 11:41:11;;;;;;;4.10;1.48;;;16.30;97.20;;;;;;5036773;28;20115;-51
2023/10/18 11:43:43;;;;;;;1.98;1.25;;;16.40;98.00;;;;;;5039674;28;20390;-50
2023/10/18 11:46:11;;;;;;;2.25;1.15;;;16.80;97.50;;;;;;5038345;28;20122;-52
2023/10/18 11:48:37;;;;;;;2.05;1.02;;;17.20;97.00;;;;;;5041390;28;20032;-55
2023/10/18 11:51:05;;;;;;;3.08;1.35;;;17.50;96.20;;;;;;5037238;28;20037;-52
2023/10/18 11:53:32;;;;;;;4.07;1.23;;;17.60;96.90;;;;;;5042102;28;20039;-54
2023/10/18 11:56:11;;;;;;;3.85;1.20;;;17.70;97.00;;;;;;5044554;28;20033;-50
2023/10/18 11:58:40;;;;;;;2.00;1.10;;;18.10;94.60;;;;;;5037395;28;20030;-53
2023/10/18 12:01:19;;;;;;;;;;;18.20;93.50;;;;;;5032719;28;20099;-52
2023/10/18 12:03:48;;;;;;;3.38;1.20;;;18.00;92.00;;;;;;5030890;28;19915;-54
2023/10/18 12:06:13;;;;;;;3.53;1.10;;;17.80;92.40;;;;;;5044341;28;20044;-51
2023/10/18 12:08:47;;;;;;;3.28;1.30;;;17.70;93.10;;;;;;5032207;28;20040;-54
2023/10/18 12:11:14;;;;;;;3.05;1.33;;;17.70;91.90;;;;;;5037539;28;20474;-55
2023/10/18 12:13:41;;;;;;;3.63;1.20;;;17.70;92.90;;;;;;5040398;28;20503;-49
2023/10/18 12:16:08;;;;;;;2.67;0.88;;;17.70;92.40;;;;;;5040155;28;20418;-52
2023/10/18 12:18:35;;;;;;;2.00;1.10;;;17.50;92.90;;;;;;5037019;28;20025;-51
2023/10/18 12:21:01;;;;;;;2.83;1.27;;;17.40;93.50;;;;;;5033076;28;20045;-54
2023/10/18 12:23:27;;;;;;;1.38;0.80;;;17.40;93.30;;;;;;5033149;28;20034;-54
2023/10/18 12:25:52;;;;;;;1.98;0.90;;;17.40;92.70;;;;;;5028564;28;20060;-53
2023/10/18 12:28:26;;;;;;;4.57;1.10;;;17.30;92.50;;;;;;5035169;28;20083;-51
2023/10/18 12:30:52;;;;;;;1.63;0.82;;;17.40;93.20;;;;;;5028584;28;20029;-53
2023/10/18 12:33:23;;;;;;;1.77;0.95;;;17.40;92.10;;;;;;5028678;28;20033;-52
2023/10/18 12:35:49;;;;;;;4.07;1.10;;;17.40;92.40;;;;;;5033313;28;20111;-54
2023/10/18 12:38:15;;;;;;;2.72;1.15;;;17.20;93.40;;;;;;5032294;28;20149;-53
2023/10/18 12:40:55;;;;;;;2.60;1.00;;;17.30;93.30;;;;;;5025052;28;20021;-49
2023/10/18 12:43:21;;;;;;;2.28;1.10;;;17.30;92.00;;;;;;5025573;28;20048;-52
2023/10/18 12:45:50;;;;;;;2.42;1.10;;;17.20;91.70;;;;;;5025000;28;20026;-53
2023/10/18 12:48:22;;;;;;;3.15;0.98;;;17.20;93.00;;;;;;5027162;28;20569;-52
2023/10/18 12:50:50;;;;;;;1.67;0.93;;;17.20;91.90;;;;;;5029406;28;20026;-51
2023/10/18 12:56:16;;;;;;;1.88;1.00;;;17.30;91.70;;;;;;5024749;28;20076;-52
2023/10/18 12:58:47;;;;;;;4.20;0.90;;;17.50;92.50;;;;;;5024533;28;20378;-51
2023/10/18 13:01:16;;;;;;;3.20;1.10;;;17.70;90.80;;;;;;5026433;28;20493;-52
2023/10/18 13:03:45;;;;;;;2.28;0.88;;;18.00;90.60;;;;;;5025701;28;20374;-50
2023/10/18 13:06:18;;;;;;;2.00;0.82;;;18.30;89.80;;;;;;5026797;28;20037;-53
2023/10/18 13:09:06;;;;;;;1.77;0.90;;;18.50;90.50;;;;;;5027409;28;20132;-52
2023/10/18 13:14:31;;;;;;;1.50;0.90;;;19.10;86.90;;;;;;5030515;28;20034;-51
2023/10/18 13:17:05;;;;;;;2.25;0.90;;;19.00;88.30;;;;;;5026628;28;20017;-51
2023/10/18 13:19:31;;;;;;;3.28;1.30;;;19.10;85.70;;;;;;5008949;28;20084;-54
2023/10/18 13:21:57;;;;;;;3.20;1.05;;;19.10;88.40;;;;;;5027224;28;20459;-52
2023/10/18 13:26:53;;;;;;;2.60;1.20;;;19.60;85.50;;;;;;5039523;28;20053;-53
2023/10/18 13:31:50;;;;;;;2.15;1.00;;;20.20;81.00;;;;;;5027997;28;20025;-49
2023/10/18 13:34:19;;;;;;;2.97;1.02;;;20.10;83.10;;;;;;5028840;28;20029;-54
2023/10/18 13:36:49;;;;;;;2.88;1.10;;;19.90;83.60;;;;;;5031820;28;20048;-55
2023/10/18 13:39:19;;;;;;;2.63;0.90;;;19.50;83.50;;;;;;5037791;28;20029;-53
2023/10/18 13:41:49;;;;;;;1.80;0.95;;;19.10;85.70;;;;;;5032206;28;20036;-54
2023/10/18 13:44:20;;;;;;;3.13;1.40;;;18.80;85.60;;;;;;5031749;28;20489;-54
2023/10/18 13:46:55;;;;;;;2.08;1.13;;;18.60;87.20;;;;;;5032840;28;20049;-53
2023/10/18 13:49:24;;;;;;;1.98;1.08;;;18.40;86.10;;;;;;5033037;28;20651;-55
2023/10/18 13:51:51;;;;;;;2.30;0.93;;;18.20;84.80;;;;;;5045851;28;20026;-54
2023/10/18 13:54:18;;;;;;;2.22;0.90;;;17.90;85.80;;;;;;5032888;28;20120;-55
2023/10/18 13:56:44;;;;;;;3.65;0.80;;;17.60;86.40;;;;;;5033099;28;20025;-54